sensor_id;sensor_type;location;lat;lon;timestamp;P1;durP1;ratioP1;P2;durP2;ratioP2
50555;SDS011;36508;52.512;13.450;2023-07-29T00:01:51;11.10;;;10.33;;
50555;SDS011;36508;52.512;13.450;2023-07-29T00:04:18;12.40;;;11.50;;
50555;SDS011;36508;52.512;13.450;2023-07-29T00:06:45;26.03;;;23.50;;
50555;SDS011;36508;52.512;13.450;2023-07-29T00:09:11;12.83;;;11.97;;
50555;SDS011;36508;52.512;13.450;2023-07-29T00:11:37;13.43;;;12.47;;
50555;SDS011;36508;52.512;13.450;2023-07-29T00:14:03;11.40;;;10.67;;
50555;SDS011;36508;52.512;13.450;2023-07-29T00:16:28;12.77;;;11.57;;
50555;SDS011;36508;52.512;13.450;2023-07-29T00:18:54;11.67;;;10.80;;
50555;SDS011;36508;52.512;13.450;2023-07-29T00:21:19;11.87;;;11.03;;
50555;SDS011;36508;52.512;13.450;2023-07-29T00:23:45;12.40;;;11.60;;
50555;SDS011;36508;52.512;13.450;2023-07-29T00:26:11;12.10;;;11.30;;
50555;SDS011;36508;52.512;13.450;2023-07-29T00:28:36;12.03;;;11.03;;
50555;SDS011;36508;52.512;13.450;2023-07-29T00:31:02;13.67;;;12.50;;
50555;SDS011;36508;52.512;13.450;2023-07-29T00:33:27;11.83;;;11.03;;
50555;SDS011;36508;52.512;13.450;2023-07-29T00:35:53;11.17;;;10.27;;
50555;SDS011;36508;52.512;13.450;2023-07-29T00:38:19;11.70;;;10.90;;
50555;SDS011;36508;52.512;13.450;2023-07-29T00:40:44;12.10;;;10.93;;
50555;SDS011;36508;52.512;13.450;2023-07-29T00:43:11;10.53;;;9.93;;
50555;SDS011;36508;52.512;13.450;2023-07-29T00:45:36;13.97;;;12.87;;
50555;SDS011;36508;52.512;13.450;2023-07-29T00:48:03;12.37;;;11.57;;
50555;SDS011;36508;52.512;13.450;2023-07-29T00:50:30;15.90;;;14.70;;
50555;SDS011;36508;52.512;13.450;2023-07-29T00:52:57;13.17;;;12.37;;
50555;SDS011;36508;52.512;13.450;2023-07-29T00:55:22;13.00;;;12.00;;
50555;SDS011;36508;52.512;13.450;2023-07-29T00:57:48;12.17;;;11.37;;
50555;SDS011;36508;52.512;13.450;2023-07-29T01:00:16;11.70;;;11.00;;
50555;SDS011;36508;52.512;13.450;2023-07-29T01:02:42;11.70;;;10.90;;
50555;SDS011;36508;52.512;13.450;2023-07-29T01:05:08;13.07;;;12.17;;
50555;SDS011;36508;52.512;13.450;2023-07-29T01:15:58;13.50;;;12.27;;
50555;SDS011;36508;52.512;13.450;2023-07-29T01:18:39;13.70;;;12.70;;
50555;SDS011;36508;52.512;13.450;2023-07-29T01:21:07;12.53;;;11.40;;
50555;SDS011;36508;52.512;13.450;2023-07-29T01:23:34;12.20;;;11.30;;
50555;SDS011;36508;52.512;13.450;2023-07-29T01:26:00;11.97;;;10.97;;
50555;SDS011;36508;52.512;13.450;2023-07-29T01:28:26;11.47;;;10.47;;
50555;SDS011;36508;52.512;13.450;2023-07-29T01:30:59;11.67;;;10.83;;
50555;SDS011;36508;52.512;13.450;2023-07-29T01:33:34;11.83;;;11.03;;
50555;SDS011;36508;52.512;13.450;2023-07-29T01:36:14;12.33;;;11.53;;
50555;SDS011;36508;52.512;13.450;2023-07-29T01:38:47;11.97;;;11.13;;
50555;SDS011;36508;52.512;13.450;2023-07-29T01:41:14;13.20;;;12.30;;
50555;SDS011;36508;52.512;13.450;2023-07-29T01:43:41;12.00;;;11.30;;
50555;SDS011;36508;52.512;13.450;2023-07-29T01:46:11;13.90;;;12.70;;
50555;SDS011;36508;52.512;13.450;2023-07-29T01:48:38;11.80;;;11.00;;
50555;SDS011;36508;52.512;13.450;2023-07-29T01:51:04;13.40;;;12.30;;
50555;SDS011;36508;52.512;13.450;2023-07-29T01:53:30;15.00;;;13.80;;
50555;SDS011;36508;52.512;13.450;2023-07-29T01:55:56;13.57;;;12.60;;
50555;SDS011;36508;52.512;13.450;2023-07-29T01:58:22;14.90;;;13.70;;
50555;SDS011;36508;52.512;13.450;2023-07-29T02:00:48;15.70;;;14.33;;
50555;SDS011;36508;52.512;13.450;2023-07-29T02:03:13;13.03;;;12.23;;
50555;SDS011;36508;52.512;13.450;2023-07-29T02:05:39;17.43;;;15.90;;
50555;SDS011;36508;52.512;13.450;2023-07-29T02:08:05;12.80;;;11.90;;
50555;SDS011;36508;52.512;13.450;2023-07-29T02:10:30;15.30;;;14.20;;
50555;SDS011;36508;52.512;13.450;2023-07-29T02:12:56;15.07;;;14.03;;
50555;SDS011;36508;52.512;13.450;2023-07-29T02:15:21;15.13;;;13.93;;
50555;SDS011;36508;52.512;13.450;2023-07-29T02:17:49;15.40;;;14.00;;
50555;SDS011;36508;52.512;13.450;2023-07-29T02:20:16;15.00;;;13.60;;
50555;SDS011;36508;52.512;13.450;2023-07-29T02:22:41;15.63;;;14.63;;
50555;SDS011;36508;52.512;13.450;2023-07-29T02:25:07;15.33;;;13.93;;
50555;SDS011;36508;52.512;13.450;2023-07-29T02:27:32;15.97;;;14.87;;
50555;SDS011;36508;52.512;13.450;2023-07-29T02:29:58;15.30;;;14.20;;
50555;SDS011;36508;52.512;13.450;2023-07-29T02:32:24;15.77;;;14.47;;
50555;SDS011;36508;52.512;13.450;2023-07-29T02:34:49;17.67;;;16.20;;
50555;SDS011;36508;52.512;13.450;2023-07-29T02:37:15;17.77;;;16.27;;
50555;SDS011;36508;52.512;13.450;2023-07-29T02:39:40;16.30;;;15.20;;
50555;SDS011;36508;52.512;13.450;2023-07-29T02:42:06;14.87;;;13.83;;
50555;SDS011;36508;52.512;13.450;2023-07-29T02:44:31;14.47;;;13.47;;
50555;SDS011;36508;52.512;13.450;2023-07-29T02:46:57;14.87;;;13.87;;
50555;SDS011;36508;52.512;13.450;2023-07-29T02:49:23;13.70;;;12.57;;
50555;SDS011;36508;52.512;13.450;2023-07-29T02:51:48;13.83;;;12.87;;
50555;SDS011;36508;52.512;13.450;2023-07-29T02:54:14;13.70;;;12.77;;
50555;SDS011;36508;52.512;13.450;2023-07-29T02:56:40;14.57;;;13.47;;
50555;SDS011;36508;52.512;13.450;2023-07-29T02:59:05;12.20;;;11.30;;
50555;SDS011;36508;52.512;13.450;2023-07-29T03:01:31;15.30;;;14.03;;
50555;SDS011;36508;52.512;13.450;2023-07-29T03:03:56;15.20;;;14.10;;
50555;SDS011;36508;52.512;13.450;2023-07-29T03:06:22;14.00;;;13.00;;
50555;SDS011;36508;52.512;13.450;2023-07-29T03:08:48;13.73;;;12.73;;
50555;SDS011;36508;52.512;13.450;2023-07-29T03:11:15;14.13;;;12.90;;
50555;SDS011;36508;52.512;13.450;2023-07-29T03:13:41;12.60;;;11.60;;
50555;SDS011;36508;52.512;13.450;2023-07-29T03:16:11;13.80;;;12.90;;
50555;SDS011;36508;52.512;13.450;2023-07-29T03:18:38;12.57;;;11.77;;
50555;SDS011;36508;52.512;13.450;2023-07-29T03:21:04;12.17;;;11.37;;
50555;SDS011;36508;52.512;13.450;2023-07-29T03:23:30;12.97;;;12.07;;
50555;SDS011;36508;52.512;13.450;2023-07-29T03:25:57;12.43;;;11.70;;
50555;SDS011;36508;52.512;13.450;2023-07-29T03:28:25;12.00;;;11.27;;
50555;SDS011;36508;52.512;13.450;2023-07-29T03:30:52;12.73;;;11.80;;
50555;SDS011;36508;52.512;13.450;2023-07-29T03:33:21;13.70;;;12.90;;
50555;SDS011;36508;52.512;13.450;2023-07-29T03:35:47;14.80;;;13.63;;
50555;SDS011;36508;52.512;13.450;2023-07-29T03:38:13;16.10;;;14.60;;
50555;SDS011;36508;52.512;13.450;2023-07-29T03:40:39;16.67;;;15.37;;
50555;SDS011;36508;52.512;13.450;2023-07-29T03:43:05;13.30;;;12.10;;
50555;SDS011;36508;52.512;13.450;2023-07-29T03:45:30;15.10;;;13.90;;
50555;SDS011;36508;52.512;13.450;2023-07-29T03:47:56;12.70;;;11.70;;
50555;SDS011;36508;52.512;13.450;2023-07-29T03:50:22;14.83;;;13.70;;
50555;SDS011;36508;52.512;13.450;2023-07-29T03:52:48;13.80;;;12.60;;
50555;SDS011;36508;52.512;13.450;2023-07-29T03:55:14;15.20;;;14.20;;
50555;SDS011;36508;52.512;13.450;2023-07-29T03:57:39;12.67;;;11.77;;
50555;SDS011;36508;52.512;13.450;2023-07-29T04:00:05;13.10;;;11.93;;
50555;SDS011;36508;52.512;13.450;2023-07-29T04:02:31;13.40;;;12.57;;
50555;SDS011;36508;52.512;13.450;2023-07-29T04:04:56;14.47;;;13.20;;
50555;SDS011;36508;52.512;13.450;2023-07-29T04:07:22;10.97;;;10.20;;
50555;SDS011;36508;52.512;13.450;2023-07-29T04:09:48;12.13;;;11.20;;
50555;SDS011;36508;52.512;13.450;2023-07-29T04:12:14;13.00;;;12.00;;
50555;SDS011;36508;52.512;13.450;2023-07-29T04:14:40;12.50;;;11.70;;
50555;SDS011;36508;52.512;13.450;2023-07-29T04:17:05;14.57;;;13.53;;
50555;SDS011;36508;52.512;13.450;2023-07-29T04:19:31;12.93;;;11.93;;
50555;SDS011;36508;52.512;13.450;2023-07-29T04:21:57;12.57;;;11.77;;
50555;SDS011;36508;52.512;13.450;2023-07-29T04:24:23;13.77;;;12.87;;
50555;SDS011;36508;52.512;13.450;2023-07-29T04:26:48;14.13;;;12.80;;
50555;SDS011;36508;52.512;13.450;2023-07-29T04:29:14;12.77;;;11.90;;
50555;SDS011;36508;52.512;13.450;2023-07-29T04:31:41;11.67;;;10.97;;
50555;SDS011;36508;52.512;13.450;2023-07-29T04:34:07;11.80;;;11.00;;
50555;SDS011;36508;52.512;13.450;2023-07-29T04:36:33;10.70;;;10.03;;
50555;SDS011;36508;52.512;13.450;2023-07-29T04:38:59;11.40;;;10.70;;
50555;SDS011;36508;52.512;13.450;2023-07-29T04:41:25;10.87;;;10.13;;
50555;SDS011;36508;52.512;13.450;2023-07-29T04:43:51;11.20;;;10.33;;
50555;SDS011;36508;52.512;13.450;2023-07-29T04:46:17;11.37;;;10.57;;
50555;SDS011;36508;52.512;13.450;2023-07-29T04:48:42;11.50;;;10.70;;
50555;SDS011;36508;52.512;13.450;2023-07-29T04:51:08;11.30;;;10.47;;
50555;SDS011;36508;52.512;13.450;2023-07-29T04:53:33;12.43;;;11.50;;
50555;SDS011;36508;52.512;13.450;2023-07-29T04:56:02;13.97;;;12.90;;
50555;SDS011;36508;52.512;13.450;2023-07-29T04:58:27;11.20;;;10.50;;
50555;SDS011;36508;52.512;13.450;2023-07-29T05:00:54;12.37;;;11.50;;
50555;SDS011;36508;52.512;13.450;2023-07-29T05:03:20;11.57;;;10.77;;
50555;SDS011;36508;52.512;13.450;2023-07-29T05:05:46;11.10;;;10.30;;
50555;SDS011;36508;52.512;13.450;2023-07-29T05:08:11;11.27;;;10.37;;
50555;SDS011;36508;52.512;13.450;2023-07-29T05:10:37;10.90;;;10.20;;
50555;SDS011;36508;52.512;13.450;2023-07-29T05:13:02;10.97;;;10.27;;
50555;SDS011;36508;52.512;13.450;2023-07-29T05:15:28;11.33;;;10.37;;
50555;SDS011;36508;52.512;13.450;2023-07-29T05:17:53;11.63;;;10.83;;
50555;SDS011;36508;52.512;13.450;2023-07-29T05:20:19;10.13;;;9.53;;
50555;SDS011;36508;52.512;13.450;2023-07-29T05:22:45;12.27;;;11.37;;
50555;SDS011;36508;52.512;13.450;2023-07-29T05:25:10;11.43;;;10.67;;
50555;SDS011;36508;52.512;13.450;2023-07-29T05:27:36;11.33;;;10.60;;
50555;SDS011;36508;52.512;13.450;2023-07-29T05:30:01;12.10;;;11.03;;
50555;SDS011;36508;52.512;13.450;2023-07-29T05:32:27;11.27;;;10.37;;
50555;SDS011;36508;52.512;13.450;2023-07-29T05:34:53;11.03;;;10.33;;
50555;SDS011;36508;52.512;13.450;2023-07-29T05:37:18;10.60;;;9.90;;
50555;SDS011;36508;52.512;13.450;2023-07-29T05:39:44;9.03;;;8.43;;
50555;SDS011;36508;52.512;13.450;2023-07-29T05:42:09;8.33;;;7.83;;
50555;SDS011;36508;52.512;13.450;2023-07-29T05:44:35;9.60;;;9.10;;
50555;SDS011;36508;52.512;13.450;2023-07-29T05:47:00;10.13;;;9.17;;
50555;SDS011;36508;52.512;13.450;2023-07-29T05:49:26;10.50;;;9.90;;
50555;SDS011;36508;52.512;13.450;2023-07-29T05:51:52;9.83;;;9.23;;
50555;SDS011;36508;52.512;13.450;2023-07-29T05:54:18;9.43;;;8.70;;
50555;SDS011;36508;52.512;13.450;2023-07-29T05:56:44;9.80;;;9.30;;
50555;SDS011;36508;52.512;13.450;2023-07-29T05:59:09;10.23;;;9.53;;
50555;SDS011;36508;52.512;13.450;2023-07-29T06:01:35;9.97;;;9.37;;
50555;SDS011;36508;52.512;13.450;2023-07-29T06:04:00;10.10;;;9.50;;
50555;SDS011;36508;52.512;13.450;2023-07-29T06:06:26;9.23;;;8.63;;
50555;SDS011;36508;52.512;13.450;2023-07-29T06:08:52;10.13;;;9.43;;
50555;SDS011;36508;52.512;13.450;2023-07-29T06:11:17;8.30;;;7.80;;
50555;SDS011;36508;52.512;13.450;2023-07-29T06:13:43;9.83;;;9.03;;
50555;SDS011;36508;52.512;13.450;2023-07-29T06:16:09;9.90;;;9.20;;
50555;SDS011;36508;52.512;13.450;2023-07-29T06:18:34;9.50;;;8.90;;
50555;SDS011;36508;52.512;13.450;2023-07-29T06:21:00;8.00;;;7.60;;
50555;SDS011;36508;52.512;13.450;2023-07-29T06:23:25;8.90;;;8.33;;
50555;SDS011;36508;52.512;13.450;2023-07-29T06:25:51;8.37;;;7.87;;
50555;SDS011;36508;52.512;13.450;2023-07-29T06:28:16;10.07;;;9.37;;
50555;SDS011;36508;52.512;13.450;2023-07-29T06:30:42;10.17;;;9.10;;
50555;SDS011;36508;52.512;13.450;2023-07-29T06:33:07;8.23;;;7.83;;
50555;SDS011;36508;52.512;13.450;2023-07-29T06:35:33;8.47;;;7.80;;
50555;SDS011;36508;52.512;13.450;2023-07-29T06:37:59;7.30;;;6.90;;
50555;SDS011;36508;52.512;13.450;2023-07-29T06:40:24;6.90;;;6.50;;
50555;SDS011;36508;52.512;13.450;2023-07-29T06:42:50;10.27;;;9.37;;
50555;SDS011;36508;52.512;13.450;2023-07-29T06:45:16;9.17;;;8.67;;
50555;SDS011;36508;52.512;13.450;2023-07-29T06:47:42;8.80;;;8.00;;
50555;SDS011;36508;52.512;13.450;2023-07-29T06:50:07;7.30;;;6.80;;
50555;SDS011;36508;52.512;13.450;2023-07-29T06:52:33;6.77;;;6.37;;
50555;SDS011;36508;52.512;13.450;2023-07-29T06:54:59;8.40;;;7.80;;
50555;SDS011;36508;52.512;13.450;2023-07-29T06:57:24;7.23;;;6.83;;
50555;SDS011;36508;52.512;13.450;2023-07-29T06:59:50;7.63;;;7.17;;
50555;SDS011;36508;52.512;13.450;2023-07-29T07:02:15;7.70;;;7.30;;
50555;SDS011;36508;52.512;13.450;2023-07-29T07:04:41;6.00;;;5.70;;
50555;SDS011;36508;52.512;13.450;2023-07-29T07:07:07;7.20;;;6.83;;
50555;SDS011;36508;52.512;13.450;2023-07-29T07:09:32;7.27;;;6.77;;
50555;SDS011;36508;52.512;13.450;2023-07-29T07:11:58;7.43;;;7.03;;
50555;SDS011;36508;52.512;13.450;2023-07-29T07:14:23;7.30;;;6.90;;
50555;SDS011;36508;52.512;13.450;2023-07-29T07:16:49;7.37;;;6.97;;
50555;SDS011;36508;52.512;13.450;2023-07-29T07:19:15;7.27;;;6.87;;
50555;SDS011;36508;52.512;13.450;2023-07-29T07:21:40;6.97;;;6.57;;
50555;SDS011;36508;52.512;13.450;2023-07-29T07:24:06;7.30;;;6.60;;
50555;SDS011;36508;52.512;13.450;2023-07-29T07:26:31;8.27;;;7.77;;
50555;SDS011;36508;52.512;13.450;2023-07-29T07:28:57;7.80;;;7.30;;
50555;SDS011;36508;52.512;13.450;2023-07-29T07:31:22;6.53;;;6.23;;
50555;SDS011;36508;52.512;13.450;2023-07-29T07:33:48;7.10;;;6.50;;
50555;SDS011;36508;52.512;13.450;2023-07-29T07:36:14;8.10;;;7.50;;
50555;SDS011;36508;52.512;13.450;2023-07-29T07:38:40;6.83;;;6.33;;
50555;SDS011;36508;52.512;13.450;2023-07-29T07:41:06;6.53;;;6.23;;
50555;SDS011;36508;52.512;13.450;2023-07-29T07:43:32;6.63;;;6.30;;
50555;SDS011;36508;52.512;13.450;2023-07-29T07:45:58;6.70;;;6.30;;
50555;SDS011;36508;52.512;13.450;2023-07-29T07:48:24;6.87;;;6.57;;
50555;SDS011;36508;52.512;13.450;2023-07-29T07:50:50;7.30;;;6.90;;
50555;SDS011;36508;52.512;13.450;2023-07-29T07:53:16;8.00;;;7.60;;
50555;SDS011;36508;52.512;13.450;2023-07-29T07:55:41;7.70;;;7.30;;
50555;SDS011;36508;52.512;13.450;2023-07-29T07:58:07;8.30;;;7.83;;
50555;SDS011;36508;52.512;13.450;2023-07-29T08:00:32;13.30;;;12.20;;
50555;SDS011;36508;52.512;13.450;2023-07-29T08:02:58;8.10;;;7.60;;
50555;SDS011;36508;52.512;13.450;2023-07-29T08:05:24;8.60;;;8.03;;
50555;SDS011;36508;52.512;13.450;2023-07-29T08:07:49;9.47;;;8.70;;
50555;SDS011;36508;52.512;13.450;2023-07-29T08:10:17;7.20;;;6.80;;
50555;SDS011;36508;52.512;13.450;2023-07-29T08:12:42;8.20;;;7.80;;
50555;SDS011;36508;52.512;13.450;2023-07-29T08:15:08;8.00;;;7.60;;
50555;SDS011;36508;52.512;13.450;2023-07-29T08:17:33;7.10;;;6.70;;
50555;SDS011;36508;52.512;13.450;2023-07-29T08:19:59;7.23;;;6.87;;
50555;SDS011;36508;52.512;13.450;2023-07-29T08:22:25;6.13;;;5.83;;
50555;SDS011;36508;52.512;13.450;2023-07-29T08:24:50;6.53;;;6.23;;
50555;SDS011;36508;52.512;13.450;2023-07-29T08:27:16;6.17;;;5.87;;
50555;SDS011;36508;52.512;13.450;2023-07-29T08:29:41;6.30;;;5.90;;
50555;SDS011;36508;52.512;13.450;2023-07-29T08:32:07;5.93;;;5.63;;
50555;SDS011;36508;52.512;13.450;2023-07-29T08:34:32;6.30;;;5.90;;
50555;SDS011;36508;52.512;13.450;2023-07-29T08:36:58;5.90;;;5.50;;
50555;SDS011;36508;52.512;13.450;2023-07-29T08:39:25;5.27;;;5.07;;
50555;SDS011;36508;52.512;13.450;2023-07-29T08:42:07;5.03;;;4.73;;
50555;SDS011;36508;52.512;13.450;2023-07-29T08:44:39;6.07;;;5.73;;
50555;SDS011;36508;52.512;13.450;2023-07-29T08:47:06;6.20;;;5.90;;
50555;SDS011;36508;52.512;13.450;2023-07-29T08:49:32;5.67;;;5.33;;
50555;SDS011;36508;52.512;13.450;2023-07-29T08:51:58;5.40;;;5.10;;
50555;SDS011;36508;52.512;13.450;2023-07-29T08:54:26;5.53;;;5.33;;
50555;SDS011;36508;52.512;13.450;2023-07-29T08:56:51;6.57;;;6.13;;
50555;SDS011;36508;52.512;13.450;2023-07-29T08:59:17;5.97;;;5.67;;
50555;SDS011;36508;52.512;13.450;2023-07-29T09:01:44;14.57;;;13.47;;
50555;SDS011;36508;52.512;13.450;2023-07-29T09:04:10;5.83;;;5.57;;
50555;SDS011;36508;52.512;13.450;2023-07-29T09:06:35;6.10;;;5.60;;
50555;SDS011;36508;52.512;13.450;2023-07-29T09:09:03;10.27;;;9.57;;
50555;SDS011;36508;52.512;13.450;2023-07-29T09:11:29;6.50;;;6.10;;
50555;SDS011;36508;52.512;13.450;2023-07-29T09:13:55;10.27;;;9.23;;
50555;SDS011;36508;52.512;13.450;2023-07-29T09:16:21;8.77;;;8.17;;
50555;SDS011;36508;52.512;13.450;2023-07-29T09:18:48;10.27;;;9.50;;
50555;SDS011;36508;52.512;13.450;2023-07-29T09:21:17;4.77;;;4.57;;
50555;SDS011;36508;52.512;13.450;2023-07-29T09:23:48;5.63;;;5.33;;
50555;SDS011;36508;52.512;13.450;2023-07-29T09:26:18;5.63;;;4.70;;
50555;SDS011;36508;52.512;13.450;2023-07-29T09:28:51;4.87;;;4.57;;
50555;SDS011;36508;52.512;13.450;2023-07-29T09:31:19;5.33;;;5.10;;
50555;SDS011;36508;52.512;13.450;2023-07-29T09:33:46;6.20;;;5.90;;
50555;SDS011;36508;52.512;13.450;2023-07-29T09:36:11;4.50;;;4.30;;
50555;SDS011;36508;52.512;13.450;2023-07-29T09:38:37;3.80;;;3.70;;
50555;SDS011;36508;52.512;13.450;2023-07-29T09:41:03;5.20;;;5.00;;
50555;SDS011;36508;52.512;13.450;2023-07-29T09:43:29;4.40;;;4.20;;
50555;SDS011;36508;52.512;13.450;2023-07-29T09:45:59;4.67;;;4.47;;
50555;SDS011;36508;52.512;13.450;2023-07-29T09:48:32;4.80;;;4.60;;
50555;SDS011;36508;52.512;13.450;2023-07-29T09:51:13;5.03;;;4.83;;
50555;SDS011;36508;52.512;13.450;2023-07-29T09:53:43;6.00;;;5.70;;
50555;SDS011;36508;52.512;13.450;2023-07-29T09:56:10;4.67;;;4.40;;
50555;SDS011;36508;52.512;13.450;2023-07-29T09:58:37;4.43;;;4.03;;
50555;SDS011;36508;52.512;13.450;2023-07-29T10:01:06;4.37;;;4.23;;
50555;SDS011;36508;52.512;13.450;2023-07-29T10:03:33;5.10;;;4.90;;
50555;SDS011;36508;52.512;13.450;2023-07-29T10:06:03;3.80;;;3.70;;
50555;SDS011;36508;52.512;13.450;2023-07-29T10:08:31;3.77;;;3.63;;
50555;SDS011;36508;52.512;13.450;2023-07-29T10:13:49;4.57;;;4.37;;
50555;SDS011;36508;52.512;13.450;2023-07-29T10:16:15;6.00;;;3.50;;
50555;SDS011;36508;52.512;13.450;2023-07-29T10:18:41;4.97;;;4.57;;
50555;SDS011;36508;52.512;13.450;2023-07-29T10:21:07;5.07;;;4.87;;
50555;SDS011;36508;52.512;13.450;2023-07-29T10:23:37;3.77;;;3.67;;
50555;SDS011;36508;52.512;13.450;2023-07-29T10:26:05;3.53;;;3.33;;
50555;SDS011;36508;52.512;13.450;2023-07-29T10:28:34;4.23;;;4.03;;
50555;SDS011;36508;52.512;13.450;2023-07-29T10:31:06;4.87;;;4.67;;
50555;SDS011;36508;52.512;13.450;2023-07-29T10:33:32;5.47;;;5.00;;
50555;SDS011;36508;52.512;13.450;2023-07-29T10:35:59;4.40;;;4.13;;
50555;SDS011;36508;52.512;13.450;2023-07-29T10:38:26;4.23;;;4.10;;
50555;SDS011;36508;52.512;13.450;2023-07-29T10:40:53;4.50;;;4.30;;
50555;SDS011;36508;52.512;13.450;2023-07-29T10:43:34;4.10;;;4.00;;
50555;SDS011;36508;52.512;13.450;2023-07-29T10:46:21;4.83;;;4.53;;
50555;SDS011;36508;52.512;13.450;2023-07-29T10:48:52;5.50;;;5.10;;
50555;SDS011;36508;52.512;13.450;2023-07-29T10:51:25;2.50;;;2.40;;
50555;SDS011;36508;52.512;13.450;2023-07-29T10:53:56;2.47;;;2.37;;
50555;SDS011;36508;52.512;13.450;2023-07-29T10:56:26;3.13;;;2.97;;
50555;SDS011;36508;52.512;13.450;2023-07-29T10:58:54;5.97;;;5.53;;
50555;SDS011;36508;52.512;13.450;2023-07-29T11:01:31;5.10;;;4.80;;
50555;SDS011;36508;52.512;13.450;2023-07-29T11:15:11;6.53;;;2.80;;
50555;SDS011;36508;52.512;13.450;2023-07-29T11:17:39;2.40;;;2.30;;
50555;SDS011;36508;52.512;13.450;2023-07-29T11:20:06;2.80;;;2.70;;
50555;SDS011;36508;52.512;13.450;2023-07-29T11:22:33;1.83;;;1.73;;
50555;SDS011;36508;52.512;13.450;2023-07-29T11:24:58;3.37;;;2.00;;
50555;SDS011;36508;52.512;13.450;2023-07-29T11:27:24;2.50;;;1.87;;
50555;SDS011;36508;52.512;13.450;2023-07-29T11:29:50;8.63;;;2.70;;
50555;SDS011;36508;52.512;13.450;2023-07-29T11:32:21;3.90;;;2.23;;
50555;SDS011;36508;52.512;13.450;2023-07-29T11:34:46;1.83;;;1.73;;
50555;SDS011;36508;52.512;13.450;2023-07-29T11:37:12;2.60;;;2.20;;
50555;SDS011;36508;52.512;13.450;2023-07-29T11:39:41;2.33;;;2.00;;
50555;SDS011;36508;52.512;13.450;2023-07-29T11:42:26;2.90;;;2.70;;
50555;SDS011;36508;52.512;13.450;2023-07-29T11:44:52;2.40;;;2.30;;
50555;SDS011;36508;52.512;13.450;2023-07-29T11:47:17;5.03;;;4.20;;
50555;SDS011;36508;52.512;13.450;2023-07-29T11:49:43;2.40;;;2.30;;
50555;SDS011;36508;52.512;13.450;2023-07-29T11:52:09;3.20;;;2.90;;
50555;SDS011;36508;52.512;13.450;2023-07-29T11:54:35;4.50;;;2.20;;
50555;SDS011;36508;52.512;13.450;2023-07-29T11:57:08;4.80;;;4.50;;
50555;SDS011;36508;52.512;13.450;2023-07-29T11:59:34;6.87;;;6.43;;
50555;SDS011;36508;52.512;13.450;2023-07-29T12:02:01;4.17;;;3.83;;
50555;SDS011;36508;52.512;13.450;2023-07-29T12:04:30;5.63;;;4.10;;
50555;SDS011;36508;52.512;13.450;2023-07-29T12:06:56;5.17;;;3.50;;
50555;SDS011;36508;52.512;13.450;2023-07-29T12:09:22;3.23;;;3.00;;
50555;SDS011;36508;52.512;13.450;2023-07-29T12:11:48;3.40;;;3.10;;
50555;SDS011;36508;52.512;13.450;2023-07-29T12:14:16;3.03;;;2.83;;
50555;SDS011;36508;52.512;13.450;2023-07-29T12:16:42;4.80;;;2.50;;
50555;SDS011;36508;52.512;13.450;2023-07-29T12:19:11;2.70;;;2.00;;
50555;SDS011;36508;52.512;13.450;2023-07-29T12:21:38;2.80;;;2.60;;
50555;SDS011;36508;52.512;13.450;2023-07-29T12:24:05;4.40;;;4.20;;
50555;SDS011;36508;52.512;13.450;2023-07-29T12:26:30;1.90;;;1.80;;
50555;SDS011;36508;52.512;13.450;2023-07-29T12:28:56;2.50;;;2.40;;
50555;SDS011;36508;52.512;13.450;2023-07-29T12:31:27;3.23;;;2.50;;
50555;SDS011;36508;52.512;13.450;2023-07-29T12:33:57;4.63;;;2.90;;
50555;SDS011;36508;52.512;13.450;2023-07-29T12:36:27;2.87;;;2.67;;
50555;SDS011;36508;52.512;13.450;2023-07-29T12:39:06;3.23;;;3.03;;
50555;SDS011;36508;52.512;13.450;2023-07-29T12:41:40;2.47;;;2.30;;
50555;SDS011;36508;52.512;13.450;2023-07-29T12:44:06;2.73;;;2.53;;
50555;SDS011;36508;52.512;13.450;2023-07-29T12:46:31;2.73;;;2.47;;
50555;SDS011;36508;52.512;13.450;2023-07-29T12:48:57;2.20;;;2.10;;
50555;SDS011;36508;52.512;13.450;2023-07-29T12:51:22;3.10;;;3.00;;
50555;SDS011;36508;52.512;13.450;2023-07-29T12:53:48;2.70;;;2.50;;
50555;SDS011;36508;52.512;13.450;2023-07-29T12:56:13;2.70;;;2.50;;
50555;SDS011;36508;52.512;13.450;2023-07-29T12:58:39;3.23;;;3.07;;
50555;SDS011;36508;52.512;13.450;2023-07-29T13:01:04;3.30;;;3.10;;
50555;SDS011;36508;52.512;13.450;2023-07-29T13:03:30;2.70;;;2.60;;
50555;SDS011;36508;52.512;13.450;2023-07-29T13:05:55;3.13;;;2.50;;
50555;SDS011;36508;52.512;13.450;2023-07-29T13:08:21;3.10;;;3.00;;
50555;SDS011;36508;52.512;13.450;2023-07-29T13:10:48;3.03;;;2.83;;
50555;SDS011;36508;52.512;13.450;2023-07-29T13:13:14;3.80;;;3.40;;
50555;SDS011;36508;52.512;13.450;2023-07-29T13:15:43;3.17;;;3.03;;
50555;SDS011;36508;52.512;13.450;2023-07-29T13:18:08;4.83;;;4.53;;
50555;SDS011;36508;52.512;13.450;2023-07-29T13:20:34;3.37;;;3.27;;
50555;SDS011;36508;52.512;13.450;2023-07-29T13:22:59;3.80;;;3.50;;
50555;SDS011;36508;52.512;13.450;2023-07-29T13:25:25;3.30;;;3.10;;
50555;SDS011;36508;52.512;13.450;2023-07-29T13:27:51;3.43;;;3.33;;
50555;SDS011;36508;52.512;13.450;2023-07-29T13:30:16;4.03;;;3.73;;
50555;SDS011;36508;52.512;13.450;2023-07-29T13:32:42;2.97;;;2.87;;
50555;SDS011;36508;52.512;13.450;2023-07-29T13:35:07;3.57;;;3.47;;
50555;SDS011;36508;52.512;13.450;2023-07-29T13:37:33;3.23;;;2.80;;
50555;SDS011;36508;52.512;13.450;2023-07-29T13:39:58;3.77;;;3.47;;
50555;SDS011;36508;52.512;13.450;2023-07-29T13:42:24;3.63;;;3.50;;
50555;SDS011;36508;52.512;13.450;2023-07-29T13:44:49;3.47;;;3.37;;
50555;SDS011;36508;52.512;13.450;2023-07-29T13:47:15;3.83;;;3.60;;
50555;SDS011;36508;52.512;13.450;2023-07-29T13:49:40;2.90;;;2.80;;
50555;SDS011;36508;52.512;13.450;2023-07-29T13:52:06;2.73;;;2.63;;
50555;SDS011;36508;52.512;13.450;2023-07-29T13:54:32;3.60;;;3.40;;
50555;SDS011;36508;52.512;13.450;2023-07-29T13:56:57;2.00;;;1.90;;
50555;SDS011;36508;52.512;13.450;2023-07-29T13:59:23;2.97;;;2.80;;
50555;SDS011;36508;52.512;13.450;2023-07-29T14:01:49;2.50;;;2.40;;
50555;SDS011;36508;52.512;13.450;2023-07-29T14:04:14;2.63;;;2.53;;
50555;SDS011;36508;52.512;13.450;2023-07-29T14:06:43;1.93;;;1.83;;
50555;SDS011;36508;52.512;13.450;2023-07-29T14:09:08;2.17;;;2.07;;
50555;SDS011;36508;52.512;13.450;2023-07-29T14:11:34;2.30;;;2.20;;
50555;SDS011;36508;52.512;13.450;2023-07-29T14:13:59;2.10;;;2.00;;
50555;SDS011;36508;52.512;13.450;2023-07-29T14:16:25;2.77;;;2.67;;
50555;SDS011;36508;52.512;13.450;2023-07-29T14:18:50;3.00;;;2.80;;
50555;SDS011;36508;52.512;13.450;2023-07-29T14:21:16;2.27;;;2.17;;
50555;SDS011;36508;52.512;13.450;2023-07-29T14:23:41;2.50;;;2.40;;
50555;SDS011;36508;52.512;13.450;2023-07-29T14:26:07;2.97;;;2.63;;
50555;SDS011;36508;52.512;13.450;2023-07-29T14:28:34;2.10;;;2.00;;
50555;SDS011;36508;52.512;13.450;2023-07-29T14:31:01;2.33;;;2.23;;
50555;SDS011;36508;52.512;13.450;2023-07-29T14:33:26;2.00;;;1.90;;
50555;SDS011;36508;52.512;13.450;2023-07-29T14:35:52;2.50;;;2.40;;
50555;SDS011;36508;52.512;13.450;2023-07-29T14:38:18;2.50;;;2.40;;
50555;SDS011;36508;52.512;13.450;2023-07-29T14:40:44;2.50;;;2.40;;
50555;SDS011;36508;52.512;13.450;2023-07-29T14:43:12;1.67;;;1.57;;